Time;durP1;ratioP1;P1;durP2;ratioP2;P2;SDS_P1;SDS_P2;PMS_P1;PMS_P2;Temp;Humidity;BMP_temperature;BMP_pressure;BME280_temperature;BME280_humidity;BME280_pressure;Samples;Min_cycle;Max_cycle;Signal;HPM_P1;HPM_P2
2024/01/18 00:00:34;;;;;;;58.03;20.50;;;;;;;;;;5072221;28;20099;-66
2024/01/18 00:03:00;;;;;;;45.17;19.42;;;;;;;;;;5072257;28;20421;-66
2024/01/18 00:05:25;;;;;;;41.45;16.60;;;;;;;;;;5072234;28;20020;-66
2024/01/18 00:07:51;;;;;;;33.08;14.98;;;;;;;;;;5072170;28;20116;-66
2024/01/18 00:10:16;;;;;;;32.97;15.30;;;;;;;;;;5053851;28;20043;-66
2024/01/18 00:12:42;;;;;;;35.00;14.77;;;;;;;;;;5054167;28;20040;-66
2024/01/18 00:15:08;;;;;;;25.45;11.93;;;;;;;;;;5072130;28;20055;-66
2024/01/18 00:17:33;;;;;;;24.30;11.48;;;;;;;;;;5072138;28;20016;-66
2024/01/18 00:19:59;;;;;;;17.17;9.05;;;;;;;;;;5071908;28;20484;-66
2024/01/18 00:22:24;;;;;;;21.95;11.00;;;;;;;;;;5071973;28;20020;-66
2024/01/18 00:24:50;;;;;;;22.02;9.27;;;;;;;;;;5071766;28;20086;-66
2024/01/18 00:27:15;;;;;;;19.30;9.15;;;;;;;;;;5072023;28;20021;-66
2024/01/18 00:29:41;;;;;;;19.38;9.63;;;;;;;;;;5071661;28;20039;-66
2024/01/18 00:32:06;;;;;;;17.05;9.43;;;;;;;;;;5071813;28;20048;-67
2024/01/18 00:34:32;;;;;;;37.97;16.42;;;;;;;;;;5069534;28;20103;-67
2024/01/18 00:36:57;;;;;;;37.20;16.58;;;;;;;;;;5071984;28;20476;-67
2024/01/18 00:39:24;;;;;;;31.88;14.75;;;;;;;;;;5071559;28;20013;-66
2024/01/18 00:41:49;;;;;;;63.78;27.70;;;;;;;;;;5071920;28;20016;-66
2024/01/18 00:44:15;;;;;;;31.70;14.95;;;;;;;;;;5071791;28;20400;-66
2024/01/18 00:46:41;;;;;;;40.80;15.93;;;;;;;;;;5071548;28;20077;-66
2024/01/18 00:49:06;;;;;;;44.85;21.38;;;;;;;;;;5071694;28;20468;-66
2024/01/18 00:51:31;;;;;;;47.80;20.10;;;;;;;;;;5071665;28;20027;-67
2024/01/18 00:53:57;;;;;;;33.42;12.65;;;;;;;;;;5072405;28;20151;-66
2024/01/18 00:56:22;;;;;;;29.70;14.98;;;;;;;;;;5075880;28;20039;-66
2024/01/18 00:58:49;;;;;;;33.05;17.88;;;;;;;;;;5075584;28;20443;-66
2024/01/18 01:01:18;;;;;;;26.95;11.93;;;;;;;;;;5057507;28;20405;-66
2024/01/18 01:03:43;;;;;;;19.23;10.43;;;;;;;;;;5075403;28;20082;-67
2024/01/18 01:06:10;;;;;;;17.83;9.25;;;;;;;;;;5075455;28;20021;-66
2024/01/18 01:08:35;;;;;;;23.95;11.40;;;;;;;;;;5075059;28;20039;-66
2024/01/18 01:11:08;;;;;;;18.73;9.88;;;;;;;;;;5075503;28;20107;-66
2024/01/18 01:13:34;;;;;;;16.00;7.90;;;;;;;;;;5075442;28;20106;-66
2024/01/18 01:15:59;;;;;;;19.20;9.38;;;;;;;;;;5057261;28;20032;-66
2024/01/18 01:18:24;;;;;;;15.18;8.23;;;;;;;;;;5075285;28;20028;-66
2024/01/18 01:20:50;;;;;;;26.30;10.68;;;;;;;;;;5075057;28;20025;-67
2024/01/18 01:23:15;;;;;;;21.83;10.63;;;;;;;;;;5075059;28;20238;-66
2024/01/18 01:25:41;;;;;;;17.88;9.27;;;;;;;;;;5075077;28;20033;-66
2024/01/18 01:28:06;;;;;;;17.08;9.32;;;;;;;;;;5075126;28;20032;-67
2024/01/18 01:30:32;;;;;;;19.95;9.10;;;;;;;;;;5074959;28;20027;-66
2024/01/18 01:32:58;;;;;;;19.20;10.27;;;;;;;;;;5075171;28;20168;-66
2024/01/18 01:35:23;;;;;;;19.05;9.55;;;;;;;;;;5074985;28;20479;-66
2024/01/18 01:37:49;;;;;;;20.08;9.85;;;;;;;;;;5074719;28;20031;-66
2024/01/18 01:40:14;;;;;;;15.30;8.30;;;;;;;;;;5074782;28;20078;-66
2024/01/18 01:42:40;;;;;;;14.73;7.22;;;;;;;;;;5074738;28;20038;-66
2024/01/18 01:45:06;;;;;;;20.35;8.63;;;;;;;;;;5074613;28;20042;-66
2024/01/18 01:47:32;;;;;;;17.27;9.65;;;;;;;;;;5074663;28;20549;-66
2024/01/18 01:49:57;;;;;;;15.32;8.75;;;;;;;;;;5056314;28;20100;-67
2024/01/18 01:52:25;;;;;;;19.70;8.73;;;;;;;;;;5074580;28;20112;-66
2024/01/18 01:54:50;;;;;;;14.63;7.78;;;;;;;;;;5074473;28;20061;-67
2024/01/18 01:57:17;;;;;;;19.00;9.18;;;;;;;;;;5074748;28;20098;-66
2024/01/18 01:59:43;;;;;;;14.43;8.98;;;;;;;;;;5074510;28;20365;-66
2024/01/18 02:02:09;;;;;;;16.55;8.00;;;;;;;;;;5074365;28;20032;-66
2024/01/18 02:04:35;;;;;;;17.10;8.88;;;;;;;;;;5056301;28;20021;-66
2024/01/18 02:07:02;;;;;;;17.70;8.95;;;;;;;;;;5074194;28;20482;-66
2024/01/18 02:09:28;;;;;;;18.70;9.30;;;;;;;;;;5072342;28;20061;-66
2024/01/18 02:11:53;;;;;;;21.52;10.68;;;;;;;;;;5074365;28;20016;-66
2024/01/18 02:14:19;;;;;;;17.08;8.70;;;;;;;;;;5074193;28;20028;-66
2024/01/18 02:16:44;;;;;;;19.92;9.63;;;;;;;;;;5073696;28;20039;-66
2024/01/18 02:19:10;;;;;;;20.40;8.05;;;;;;;;;;5073758;28;20434;-66
2024/01/18 02:21:36;;;;;;;21.92;9.73;;;;;;;;;;5073312;28;20036;-67
2024/01/18 02:24:29;;;;;;;17.98;8.82;;;;;;;;;;5073934;28;20032;-66
2024/01/18 02:26:54;;;;;;;17.55;8.45;;;;;;;;;;5074204;28;20177;-67
2024/01/18 02:29:19;;;;;;;22.45;9.23;;;;;;;;;;5072625;28;20480;-66
2024/01/18 02:31:45;;;;;;;20.05;10.13;;;;;;;;;;5073850;28;20122;-66
2024/01/18 02:34:17;;;;;;;19.08;9.30;;;;;;;;;;5073539;28;20017;-66
2024/01/18 02:36:46;;;;;;;17.40;9.48;;;;;;;;;;5073829;28;20024;-66
2024/01/18 02:39:12;;;;;;;18.27;9.48;;;;;;;;;;5073706;28;20028;-66
2024/01/18 02:41:38;;;;;;;18.80;10.07;;;;;;;;;;5073856;28;20029;-66
2024/01/18 02:44:03;;;;;;;19.25;9.27;;;;;;;;;;5073636;28;20491;-66
2024/01/18 02:46:33;;;;;;;18.95;10.35;;;;;;;;;;5073562;28;20085;-66
2024/01/18 02:48:59;;;;;;;16.73;8.43;;;;;;;;;;5073095;28;20255;-66
2024/01/18 02:51:24;;;;;;;17.48;8.52;;;;;;;;;;5073520;28;20090;-66
2024/01/18 02:53:50;;;;;;;20.27;9.23;;;;;;;;;;5073279;28;20048;-67
2024/01/18 02:56:15;;;;;;;20.75;9.57;;;;;;;;;;5073509;28;20028;-66
2024/01/18 02:58:40;;;;;;;18.98;9.40;;;;;;;;;;5073285;28;20100;-66
2024/01/18 03:01:06;;;;;;;21.25;10.02;;;;;;;;;;5073324;28;20032;-66
2024/01/18 03:03:34;;;;;;;18.85;9.07;;;;;;;;;;5073051;28;20062;-66
2024/01/18 03:06:00;;;;;;;15.98;9.20;;;;;;;;;;5055299;28;20494;-66
2024/01/18 03:08:26;;;;;;;18.65;8.93;;;;;;;;;;5073319;28;20120;-67
2024/01/18 03:10:51;;;;;;;19.38;9.45;;;;;;;;;;5055189;28;20478;-67
2024/01/18 03:13:16;;;;;;;16.33;8.90;;;;;;;;;;5073195;28;20448;-67
2024/01/18 03:15:42;;;;;;;17.98;8.95;;;;;;;;;;5072919;28;20467;-67
2024/01/18 03:18:07;;;;;;;19.77;9.63;;;;;;;;;;5072331;28;20025;-66
2024/01/18 03:20:33;;;;;;;19.98;10.00;;;;;;;;;;5072822;28;20365;-66
2024/01/18 03:22:58;;;;;;;17.40;8.70;;;;;;;;;;5072837;28;20020;-66
2024/01/18 03:25:24;;;;;;;17.33;9.27;;;;;;;;;;5072799;28;20042;-66
2024/01/18 03:27:49;;;;;;;17.88;9.73;;;;;;;;;;5072722;28;20020;-66
2024/01/18 03:30:14;;;;;;;18.00;9.60;;;;;;;;;;5072483;28;20120;-67
2024/01/18 03:32:40;;;;;;;19.58;11.18;;;;;;;;;;5071888;28;20021;-67
2024/01/18 03:35:06;;;;;;;19.17;10.57;;;;;;;;;;5072476;28;20467;-66
2024/01/18 03:37:31;;;;;;;15.45;8.70;;;;;;;;;;5072188;28;20115;-66
2024/01/18 03:39:57;;;;;;;16.27;9.20;;;;;;;;;;5071969;28;20506;-66
2024/01/18 03:42:22;;;;;;;18.50;9.73;;;;;;;;;;5072468;28;20027;-66
2024/01/18 03:44:48;;;;;;;16.90;8.55;;;;;;;;;;5072261;28;20089;-66
2024/01/18 03:47:13;;;;;;;19.67;9.85;;;;;;;;;;5072222;28;20024;-66
2024/01/18 03:49:41;;;;;;;16.77;8.90;;;;;;;;;;5072072;28;20517;-66
2024/01/18 03:52:06;;;;;;;15.82;8.32;;;;;;;;;;5072312;28;20033;-66
2024/01/18 03:54:31;;;;;;;17.25;8.68;;;;;;;;;;5072231;28;20399;-66
2024/01/18 03:56:57;;;;;;;17.17;8.60;;;;;;;;;;5072336;28;20025;-66
2024/01/18 03:59:23;;;;;;;22.15;10.15;;;;;;;;;;5072278;28;20032;-65
2024/01/18 04:01:49;;;;;;;18.15;7.88;;;;;;;;;;5071926;28;20033;-66
2024/01/18 04:04:15;;;;;;;16.73;9.00;;;;;;;;;;5072031;28;20037;-66
2024/01/18 04:06:40;;;;;;;17.10;8.27;;;;;;;;;;5071960;28;20103;-66
2024/01/18 04:09:06;;;;;;;16.25;8.80;;;;;;;;;;5072187;28;20141;-66
2024/01/18 04:11:33;;;;;;;17.17;9.05;;;;;;;;;;5072035;28;20492;-66
2024/01/18 04:13:58;;;;;;;19.05;9.40;;;;;;;;;;5053881;28;20031;-65
2024/01/18 04:16:24;;;;;;;15.82;8.15;;;;;;;;;;5071959;28;20028;-66
2024/01/18 04:18:49;;;;;;;15.45;8.40;;;;;;;;;;5071919;28;20685;-66
2024/01/18 04:21:14;;;;;;;19.63;9.00;;;;;;;;;;5071889;28;20024;-67
2024/01/18 04:23:40;;;;;;;21.35;9.15;;;;;;;;;;5071917;28;20529;-66
2024/01/18 04:26:05;;;;;;;18.55;8.63;;;;;;;;;;5071869;28;20020;-66
2024/01/18 04:28:31;;;;;;;19.65;9.27;;;;;;;;;;5070956;28;20091;-66
2024/01/18 04:30:57;;;;;;;18.83;9.05;;;;;;;;;;5071745;28;20028;-66
2024/01/18 04:33:23;;;;;;;17.77;8.82;;;;;;;;;;5053712;28;20467;-66
2024/01/18 04:35:48;;;;;;;19.05;9.25;;;;;;;;;;5071975;28;20033;-66
2024/01/18 04:38:14;;;;;;;17.25;8.90;;;;;;;;;;5071813;28;20029;-66
2024/01/18 04:40:39;;;;;;;19.33;8.98;;;;;;;;;;5069414;28;20483;-67
2024/01/18 04:43:04;;;;;;;17.48;8.43;;;;;;;;;;5071396;28;20384;-67
2024/01/18 04:45:30;;;;;;;16.50;7.88;;;;;;;;;;5071034;28;20028;-66
2024/01/18 04:47:56;;;;;;;17.65;8.52;;;;;;;;;;5071478;28;20028;-67
2024/01/18 04:50:25;;;;;;;19.45;9.10;;;;;;;;;;5071245;28;20024;-66
2024/01/18 04:52:52;;;;;;;18.83;8.60;;;;;;;;;;5071041;28;20119;-66
2024/01/18 04:55:17;;;;;;;20.08;9.07;;;;;;;;;;5070786;28;20021;-66
2024/01/18 04:57:43;;;;;;;24.45;9.23;;;;;;;;;;5071115;28;20534;-66
2024/01/18 05:00:10;;;;;;;18.80;8.90;;;;;;;;;;5070967;28;20056;-66
2024/01/18 05:02:40;;;;;;;18.92;8.68;;;;;;;;;;5071434;28;20028;-67
2024/01/18 05:05:08;;;;;;;17.38;8.82;;;;;;;;;;5071418;28;20025;-66
2024/01/18 05:07:34;;;;;;;16.50;8.82;;;;;;;;;;5071426;28;20162;-67
2024/01/18 05:09:59;;;;;;;15.80;8.75;;;;;;;;;;5071070;28;20058;-66
2024/01/18 05:12:25;;;;;;;24.45;10.25;;;;;;;;;;5069948;28;20021;-67
2024/01/18 05:14:50;;;;;;;21.05;9.85;;;;;;;;;;5069521;28;20149;-67
2024/01/18 05:17:16;;;;;;;21.85;10.15;;;;;;;;;;5069750;28;20111;-67
2024/01/18 05:19:43;;;;;;;19.98;10.02;;;;;;;;;;5069608;28;20039;-66
2024/01/18 05:22:10;;;;;;;18.33;9.15;;;;;;;;;;5069574;28;20475;-67
2024/01/18 05:24:35;;;;;;;17.98;9.70;;;;;;;;;;5069445;28;20039;-67
2024/01/18 05:27:01;;;;;;;18.00;9.82;;;;;;;;;;5069555;28;20459;-67
2024/01/18 05:29:26;;;;;;;15.90;9.23;;;;;;;;;;5069229;28;20094;-66
2024/01/18 05:31:52;;;;;;;17.98;8.73;;;;;;;;;;5069299;28;20029;-66
2024/01/18 05:34:17;;;;;;;16.08;8.32;;;;;;;;;;5069264;28;20099;-66
2024/01/18 05:36:43;;;;;;;17.67;9.45;;;;;;;;;;5069544;28;20064;-66
2024/01/18 05:39:08;;;;;;;19.65;9.45;;;;;;;;;;5069406;28;20087;-66
2024/01/18 05:41:34;;;;;;;20.35;9.52;;;;;;;;;;5072633;28;20051;-66
2024/01/18 05:44:00;;;;;;;23.25;9.98;;;;;;;;;;5072747;28;20099;-66
2024/01/18 05:46:26;;;;;;;18.88;8.70;;;;;;;;;;5072800;28;20460;-66
2024/01/18 05:48:51;;;;;;;20.98;9.07;;;;;;;;;;5072666;28;20024;-66
2024/01/18 05:51:17;;;;;;;22.65;9.35;;;;;;;;;;5072701;28;20493;-66
2024/01/18 05:53:42;;;;;;;17.95;9.23;;;;;;;;;;5072490;28;20070;-66
2024/01/18 05:56:08;;;;;;;21.00;11.00;;;;;;;;;;5072640;28;20020;-66
2024/01/18 05:58:34;;;;;;;22.02;10.32;;;;;;;;;;5072389;28;20380;-66
2024/01/18 06:01:00;;;;;;;21.75;10.07;;;;;;;;;;5072561;28;20028;-66
2024/01/18 06:03:27;;;;;;;20.50;11.63;;;;;;;;;;5072746;28;20029;-66
2024/01/18 06:05:52;;;;;;;17.20;9.45;;;;;;;;;;5072552;28;20671;-66
2024/01/18 06:08:18;;;;;;;24.75;10.75;;;;;;;;;;5058666;28;20025;-66
2024/01/18 06:10:43;;;;;;;16.80;10.10;;;;;;;;;;5052741;28;20029;-66
2024/01/18 06:13:09;;;;;;;25.60;11.05;;;;;;;;;;5052305;28;20599;-66
2024/01/18 06:15:35;;;;;;;19.10;9.85;;;;;;;;;;5052548;28;20037;-66
2024/01/18 06:18:04;;;;;;;24.33;11.60;;;;;;;;;;5052202;28;20020;-67
2024/01/18 06:20:30;;;;;;;22.52;10.95;;;;;;;;;;5052328;28;20021;-67
2024/01/18 06:22:58;;;;;;;21.50;10.95;;;;;;;;;;5034487;28;20036;-67
2024/01/18 06:25:24;;;;;;;19.75;11.00;;;;;;;;;;5063159;28;20123;-66
2024/01/18 06:27:49;;;;;;;17.13;8.35;;;;;;;;;;5071815;28;20052;-67
2024/01/18 06:30:18;;;;;;;27.27;13.07;;;;;;;;;;5072104;28;20090;-67
2024/01/18 06:32:43;;;;;;;25.10;11.45;;;;;;;;;;5071986;28;20024;-66
2024/01/18 06:35:10;;;;;;;24.48;10.88;;;;;;;;;;5072161;28;20032;-66
2024/01/18 06:37:35;;;;;;;26.38;10.70;;;;;;;;;;5072035;28;20108;-66
2024/01/18 06:40:01;;;;;;;18.15;10.23;;;;;;;;;;5071844;28;20111;-66
2024/01/18 06:42:26;;;;;;;23.55;10.05;;;;;;;;;;5071702;28;20068;-66
2024/01/18 06:44:51;;;;;;;25.92;11.50;;;;;;;;;;5071725;28;20404;-66
2024/01/18 06:47:17;;;;;;;34.70;12.68;;;;;;;;;;5082860;28;20020;-66
2024/01/18 06:49:42;;;;;;;23.05;10.82;;;;;;;;;;5071451;28;20413;-66
2024/01/18 06:52:08;;;;;;;19.30;9.15;;;;;;;;;;5070436;28;20398;-66
2024/01/18 06:54:33;;;;;;;21.67;10.52;;;;;;;;;;5071233;28;20136;-66
2024/01/18 06:56:58;;;;;;;30.52;11.27;;;;;;;;;;5053368;28;20025;-66
2024/01/18 06:59:24;;;;;;;26.00;10.95;;;;;;;;;;5071536;28;20317;-66
2024/01/18 07:01:49;;;;;;;14.15;8.15;;;;;;;;;;5071426;28;20025;-66
2024/01/18 07:04:15;;;;;;;21.90;10.25;;;;;;;;;;5071307;28;20028;-66
2024/01/18 07:06:40;;;;;;;22.10;10.43;;;;;;;;;;5071256;28;20036;-67
2024/01/18 07:09:06;;;;;;;19.52;9.18;;;;;;;;;;5071121;28;20028;-66
2024/01/18 07:11:32;;;;;;;27.70;11.30;;;;;;;;;;5071083;28;20470;-67
2024/01/18 07:13:57;;;;;;;21.08;9.40;;;;;;;;;;5071139;28;20035;-67
2024/01/18 07:16:25;;;;;;;32.53;17.00;;;;;;;;;;5071154;28;20037;-67
2024/01/18 07:18:50;;;;;;;31.98;16.25;;;;;;;;;;5070809;28;20434;-67
2024/01/18 07:21:16;;;;;;;25.20;12.00;;;;;;;;;;5070911;28;20036;-66
2024/01/18 07:23:41;;;;;;;30.17;14.05;;;;;;;;;;5071045;28;20069;-66
2024/01/18 07:26:06;;;;;;;31.70;13.18;;;;;;;;;;5070637;28;20032;-66
2024/01/18 07:28:32;;;;;;;42.08;16.88;;;;;;;;;;5070667;28;20066;-67
2024/01/18 07:30:58;;;;;;;35.08;14.90;;;;;;;;;;5070560;28;20087;-66
2024/01/18 07:33:23;;;;;;;26.83;12.30;;;;;;;;;;5070785;28;20032;-66
2024/01/18 07:35:49;;;;;;;45.35;16.17;;;;;;;;;;5070970;28;20131;-66
2024/01/18 07:38:14;;;;;;;33.85;15.75;;;;;;;;;;5070746;28;20027;-67
2024/01/18 07:40:40;;;;;;;23.90;10.80;;;;;;;;;;5070500;28;20321;-67
2024/01/18 07:43:06;;;;;;;28.48;13.10;;;;;;;;;;5070592;28;20029;-67
2024/01/18 07:45:31;;;;;;;26.02;12.50;;;;;;;;;;5070364;28;20507;-67
2024/01/18 07:47:57;;;;;;;23.00;10.75;;;;;;;;;;5070274;28;20387;-67
2024/01/18 07:50:23;;;;;;;39.83;14.52;;;;;;;;;;5070437;28;20024;-67
2024/01/18 07:52:48;;;;;;;49.97;17.90;;;;;;;;;;5069872;28;20045;-67
2024/01/18 07:55:13;;;;;;;33.10;13.98;;;;;;;;;;5070462;28;20028;-67
2024/01/18 07:57:39;;;;;;;32.45;13.85;;;;;;;;;;5068043;28;20036;-67
2024/01/18 08:00:05;;;;;;;34.85;16.17;;;;;;;;;;5054144;28;20349;-67
2024/01/18 08:02:31;;;;;;;21.95;10.73;;;;;;;;;;5071873;28;20035;-67
2024/01/18 08:04:57;;;;;;;40.78;14.90;;;;;;;;;;5072104;28;20024;-67
2024/01/18 08:07:22;;;;;;;27.13;13.40;;;;;;;;;;5071968;28;20111;-67
2024/01/18 08:09:48;;;;;;;25.50;12.15;;;;;;;;;;5072318;28;20112;-67
2024/01/18 08:12:13;;;;;;;24.65;10.90;;;;;;;;;;5071958;28;20032;-67
2024/01/18 08:14:42;;;;;;;33.67;13.73;;;;;;;;;;5071928;28;20036;-67
2024/01/18 08:17:07;;;;;;;23.45;10.98;;;;;;;;;;5071871;28;20071;-67
2024/01/18 08:19:33;;;;;;;22.58;11.50;;;;;;;;;;5072031;28;20048;-67
2024/01/18 08:21:59;;;;;;;23.40;10.63;;;;;;;;;;5071637;28;20029;-67
2024/01/18 08:24:24;;;;;;;31.70;11.15;;;;;;;;;;5071881;28;20085;-67
2024/01/18 08:26:50;;;;;;;22.42;10.85;;;;;;;;;;5071425;28;20086;-67
2024/01/18 08:29:15;;;;;;;24.65;12.38;;;;;;;;;;5071893;28;20020;-68
2024/01/18 08:31:41;;;;;;;31.98;13.27;;;;;;;;;;5072021;28;20036;-67
2024/01/18 08:34:07;;;;;;;28.70;14.63;;;;;;;;;;5071869;28;20036;-67
2024/01/18 08:36:33;;;;;;;34.05;14.68;;;;;;;;;;5071605;28;20103;-67
2024/01/18 08:38:59;;;;;;;18.23;10.05;;;;;;;;;;5071674;28;20100;-67
2024/01/18 08:41:24;;;;;;;31.98;13.55;;;;;;;;;;5071766;28;20483;-66
2024/01/18 08:43:50;;;;;;;24.75;10.85;;;;;;;;;;5071429;28;20028;-67
2024/01/18 08:46:16;;;;;;;20.17;10.30;;;;;;;;;;5071470;28;20036;-67
2024/01/18 08:48:41;;;;;;;34.55;16.20;;;;;;;;;;5071696;28;20094;-66
2024/01/18 08:51:13;;;;;;;28.80;13.15;;;;;;;;;;5071445;28;20028;-67
2024/01/18 08:53:40;;;;;;;27.52;13.10;;;;;;;;;;5060278;28;20446;-66
2024/01/18 08:56:06;;;;;;;22.42;11.52;;;;;;;;;;5071557;28;20406;-66
2024/01/18 08:58:32;;;;;;;20.70;9.35;;;;;;;;;;5071282;28;20022;-66
2024/01/18 09:00:57;;;;;;;19.55;8.80;;;;;;;;;;5071734;28;20067;-66
2024/01/18 09:03:22;;;;;;;26.38;10.55;;;;;;;;;;5071615;28;20024;-66
2024/01/18 09:05:48;;;;;;;18.55;9.15;;;;;;;;;;5071346;28;20067;-66
2024/01/18 09:08:13;;;;;;;20.73;10.20;;;;;;;;;;5071169;28;20056;-66
2024/01/18 09:10:39;;;;;;;21.17;11.18;;;;;;;;;;5071418;28;20028;-68
2024/01/18 09:13:06;;;;;;;25.52;12.02;;;;;;;;;;5071523;28;20028;-67
2024/01/18 09:15:31;;;;;;;16.20;8.30;;;;;;;;;;5073608;28;20467;-66
2024/01/18 09:17:57;;;;;;;21.08;11.35;;;;;;;;;;5075196;28;20032;-66
2024/01/18 09:20:22;;;;;;;25.00;11.60;;;;;;;;;;5075129;28;20023;-66
2024/01/18 09:22:48;;;;;;;20.90;10.55;;;;;;;;;;5074841;28;20025;-67
2024/01/18 09:25:13;;;;;;;25.63;11.73;;;;;;;;;;5075099;28;20028;-67
2024/01/18 09:27:38;;;;;;;20.80;9.40;;;;;;;;;;5075062;28;20033;-67
2024/01/18 09:30:05;;;;;;;27.88;11.43;;;;;;;;;;5074944;28;20024;-67
2024/01/18 09:32:30;;;;;;;24.38;12.20;;;;;;;;;;5074771;28;20479;-67
2024/01/18 09:34:55;;;;;;;19.83;8.85;;;;;;;;;;5074759;28;20031;-66
2024/01/18 09:37:21;;;;;;;19.17;8.95;;;;;;;;;;5075134;28;20021;-66
2024/01/18 09:39:46;;;;;;;20.38;9.15;;;;;;;;;;5075098;28;20087;-67
2024/01/18 09:42:17;;;;;;;23.15;10.40;;;;;;;;;;5074771;28;20037;-68
2024/01/18 09:44:47;;;;;;;21.88;9.48;;;;;;;;;;5074646;28;20025;-66
2024/01/18 09:47:15;;;;;;;23.83;9.75;;;;;;;;;;5074958;28;20074;-68
2024/01/18 09:49:43;;;;;;;20.00;11.00;;;;;;;;;;5074686;28;20029;-66
2024/01/18 09:52:09;;;;;;;16.17;8.45;;;;;;;;;;5074440;28;20020;-66
2024/01/18 09:54:35;;;;;;;16.00;8.20;;;;;;;;;;5074481;28;20135;-66
2024/01/18 09:57:01;;;;;;;17.42;8.02;;;;;;;;;;5074335;28;20032;-66
2024/01/18 09:59:28;;;;;;;18.77;7.82;;;;;;;;;;5074557;28;20025;-66
2024/01/18 10:01:56;;;;;;;16.33;7.72;;;;;;;;;;5074529;28;20079;-66
2024/01/18 10:04:21;;;;;;;20.30;8.45;;;;;;;;;;5074188;28;20422;-66
2024/01/18 10:06:47;;;;;;;16.95;8.07;;;;;;;;;;5074355;28;20028;-67
2024/01/18 10:09:14;;;;;;;17.58;9.45;;;;;;;;;;5074718;28;20025;-68
2024/01/18 10:11:45;;;;;;;19.58;9.20;;;;;;;;;;5074338;28;20037;-66
2024/01/18 10:14:12;;;;;;;17.30;9.32;;;;;;;;;;5074104;28;20025;-67
2024/01/18 10:16:39;;;;;;;18.88;8.93;;;;;;;;;;5074145;28;20125;-68
2024/01/18 10:19:06;;;;;;;26.40;9.20;;;;;;;;;;5056096;28;20032;-67
2024/01/18 10:21:33;;;;;;;15.98;8.70;;;;;;;;;;5074316;28;20028;-66
2024/01/18 10:24:00;;;;;;;22.00;10.05;;;;;;;;;;5074060;28;20485;-66
2024/01/18 10:26:30;;;;;;;18.63;8.88;;;;;;;;;;5074073;28;20029;-67
2024/01/18 10:28:56;;;;;;;23.67;10.18;;;;;;;;;;5073681;28;20060;-67
2024/01/18 10:31:21;;;;;;;19.70;9.00;;;;;;;;;;5074091;28;20028;-68
2024/01/18 10:33:48;;;;;;;21.45;9.13;;;;;;;;;;5073764;28;20036;-68
2024/01/18 10:36:14;;;;;;;18.42;7.50;;;;;;;;;;5074071;28;20024;-68
2024/01/18 10:38:41;;;;;;;17.10;7.88;;;;;;;;;;5073691;28;20078;-68
2024/01/18 10:41:07;;;;;;;25.30;10.68;;;;;;;;;;5073943;28;20493;-68
2024/01/18 10:43:34;;;;;;;18.50;8.45;;;;;;;;;;5073918;28;20045;-68
2024/01/18 10:46:00;;;;;;;21.77;10.07;;;;;;;;;;5073231;28;20581;-66
2024/01/18 10:48:26;;;;;;;18.52;8.10;;;;;;;;;;5073307;28;20052;-66
2024/01/18 10:50:56;;;;;;;21.65;9.30;;;;;;;;;;5073367;28;20036;-66
2024/01/18 10:53:25;;;;;;;19.85;8.73;;;;;;;;;;5073410;28;20056;-67
2024/01/18 10:55:52;;;;;;;20.95;8.25;;;;;;;;;;5073690;28;20032;-66
2024/01/18 10:58:18;;;;;;;20.65;8.63;;;;;;;;;;5073517;28;20157;-67
2024/01/18 11:00:46;;;;;;;19.52;9.27;;;;;;;;;;5073497;28;20036;-66
2024/01/18 11:03:15;;;;;;;20.95;7.88;;;;;;;;;;5073172;28;20399;-66
2024/01/18 11:05:50;;;;;;;22.75;9.48;;;;;;;;;;5073414;28;20056;-66
2024/01/18 11:08:21;;;;;;;12.35;6.68;;;;;;;;;;5073247;28;20047;-66
2024/01/18 11:10:46;;;;;;;15.10;6.45;;;;;;;;;;5073181;28;20070;-68
2024/01/18 11:13:13;;;;;;;18.88;8.45;;;;;;;;;;5073275;28;20391;-68
2024/01/18 11:15:41;;;;;;;22.15;10.27;;;;;;;;;;5073371;28;20033;-68
2024/01/18 11:18:11;;;;;;;26.33;11.57;;;;;;;;;;5072604;28;20162;-66
2024/01/18 11:20:58;;;;;;;19.98;8.25;;;;;;;;;;5073149;28;20438;-66
2024/01/18 11:23:39;;;;;;;22.27;9.90;;;;;;;;;;5073339;28;20031;-66
2024/01/18 11:26:05;;;;;;;;;;;;;;;;;;5073346;28;20055;-67
2024/01/18 11:28:31;;;;;;;21.73;7.78;;;;;;;;;;5072923;28;20386;-67
2024/01/18 11:30:57;;;;;;;19.13;8.60;;;;;;;;;;5072690;28;20329;-66
2024/01/18 11:33:23;;;;;;;23.95;11.13;;;;;;;;;;5072873;28;20112;-66
2024/01/18 11:35:48;;;;;;;17.98;7.88;;;;;;;;;;5072960;28;20111;-67
2024/01/18 11:38:24;;;;;;;17.67;8.23;;;;;;;;;;5072325;28;20028;-66
2024/01/18 11:40:56;;;;;;;22.65;9.68;;;;;;;;;;5072610;28;20044;-66
2024/01/18 11:43:24;;;;;;;26.80;9.30;;;;;;;;;;5072598;28;20540;-67
2024/01/18 11:45:50;;;;;;;24.10;9.45;;;;;;;;;;5072202;28;20391;-67
2024/01/18 11:48:16;;;;;;;20.98;9.13;;;;;;;;;;5072454;28;20029;-67
2024/01/18 11:50:41;;;;;;;13.43;6.43;;;;;;;;;;5072227;28;20031;-67
2024/01/18 11:53:09;;;;;;;21.65;9.05;;;;;;;;;;5072508;28;20055;-67
2024/01/18 11:55:42;;;;;;;17.30;7.93;;;;;;;;;;5072587;28;20028;-67
2024/01/18 11:58:08;;;;;;;20.23;9.07;;;;;;;;;;5072271;28;20071;-67
2024/01/18 12:00:34;;;;;;;20.52;9.35;;;;;;;;;;5072419;28;20064;-67
2024/01/18 12:03:03;;;;;;;15.82;7.55;;;;;;;;;;5072143;28;20037;-66
2024/01/18 12:05:29;;;;;;;13.43;6.63;;;;;;;;;;5072307;28;20063;-66
2024/01/18 12:07:55;;;;;;;19.65;8.40;;;;;;;;;;5072240;28;20028;-66
2024/01/18 12:10:21;;;;;;;20.55;8.25;;;;;;;;;;5072297;28;20033;-66
2024/01/18 12:12:46;;;;;;;19.13;8.75;;;;;;;;;;5072056;28;20154;-66
2024/01/18 12:15:17;;;;;;;18.90;8.88;;;;;;;;;;5071936;28;20059;-67
2024/01/18 12:17:44;;;;;;;22.83;8.80;;;;;;;;;;5072374;28;20035;-66
2024/01/18 12:20:17;;;;;;;21.58;8.40;;;;;;;;;;5071877;28;20467;-68
2024/01/18 12:22:43;;;;;;;13.50;6.43;;;;;;;;;;5072149;28;20032;-68
2024/01/18 12:25:09;;;;;;;19.83;9.00;;;;;;;;;;5072127;28;20409;-68
2024/01/18 12:27:35;;;;;;;22.40;9.20;;;;;;;;;;5071799;28;20025;-68
2024/01/18 12:30:01;;;;;;;19.30;9.15;;;;;;;;;;5071773;28;20395;-67
2024/01/18 12:32:27;;;;;;;20.45;9.10;;;;;;;;;;5071909;28;20044;-68
2024/01/18 12:34:56;;;;;;;17.83;7.45;;;;;;;;;;5071831;28;20020;-68
2024/01/18 12:37:21;;;;;;;17.70;8.18;;;;;;;;;;5072079;28;20024;-67
2024/01/18 12:39:47;;;;;;;9.93;5.97;;;;;;;;;;5072110;28;20025;-67
2024/01/18 12:42:13;;;;;;;21.30;8.63;;;;;;;;;;5071916;28;20028;-67
2024/01/18 12:44:40;;;;;;;11.48;5.35;;;;;;;;;;5071409;28;20020;-67
2024/01/18 12:47:05;;;;;;;20.05;7.90;;;;;;;;;;5071956;28;20089;-67
2024/01/18 12:49:31;;;;;;;14.43;6.80;;;;;;;;;;5072378;28;20025;-67
2024/01/18 12:51:59;;;;;;;19.05;7.65;;;;;;;;;;5075631;28;20070;-67
2024/01/18 12:54:26;;;;;;;18.95;9.00;;;;;;;;;;5075532;28;20399;-67
2024/01/18 12:56:59;;;;;;;20.30;10.23;;;;;;;;;;5057696;28;20517;-66
2024/01/18 12:59:25;;;;;;;28.10;10.98;;;;;;;;;;5057659;28;20365;-67
2024/01/18 13:01:51;;;;;;;20.00;8.77;;;;;;;;;;5075834;28;20024;-65
2024/01/18 13:04:22;;;;;;;19.40;8.43;;;;;;;;;;5075691;28;20028;-66
2024/01/18 13:06:50;;;;;;;19.88;9.38;;;;;;;;;;5075511;28;20025;-66
2024/01/18 13:09:17;;;;;;;21.55;8.48;;;;;;;;;;5075507;28;20460;-67
2024/01/18 13:11:45;;;;;;;23.73;9.55;;;;;;;;;;5075845;28;20063;-68
2024/01/18 13:14:10;;;;;;;16.77;7.10;;;;;;;;;;5075187;28;20036;-66
2024/01/18 13:16:41;;;;;;;10.10;4.65;;;;;;;;;;5075302;28;20024;-68
2024/01/18 13:19:08;;;;;;;18.55;7.55;;;;;;;;;;5075498;28;20020;-68
2024/01/18 13:21:34;;;;;;;19.15;7.22;;;;;;;;;;5075330;28;20028;-66
2024/01/18 13:23:59;;;;;;;21.90;8.18;;;;;;;;;;5075220;28;20086;-68
2024/01/18 13:26:25;;;;;;;14.30;6.88;;;;;;;;;;5075056;28;20103;-67
2024/01/18 13:28:51;;;;;;;12.63;5.28;;;;;;;;;;5075085;28;20029;-68
2024/01/18 13:31:17;;;;;;;12.30;6.80;;;;;;;;;;5075331;28;20455;-66
2024/01/18 13:33:43;;;;;;;20.63;8.73;;;;;;;;;;5075132;28;20124;-66
2024/01/18 13:36:09;;;;;;;20.40;8.82;;;;;;;;;;5074923;28;20099;-67
2024/01/18 13:38:35;;;;;;;19.52;8.10;;;;;;;;;;5057113;28;20025;-67
2024/01/18 13:41:01;;;;;;;22.95;9.80;;;;;;;;;;5074951;28;20078;-66
2024/01/18 13:43:26;;;;;;;14.13;7.22;;;;;;;;;;5074956;28;20040;-66
2024/01/18 13:45:53;;;;;;;19.15;7.85;;;;;;;;;;5074786;28;20064;-67
2024/01/18 13:48:18;;;;;;;16.08;7.10;;;;;;;;;;5074897;28;20028;-68
2024/01/18 13:50:44;;;;;;;14.27;7.50;;;;;;;;;;5074629;28;20044;-66
2024/01/18 13:53:14;;;;;;;14.93;6.63;;;;;;;;;;5074200;28;20049;-66
2024/01/18 13:55:40;;;;;;;18.80;8.10;;;;;;;;;;5073348;28;20460;-66
2024/01/18 13:58:07;;;;;;;20.85;8.73;;;;;;;;;;5073330;28;20074;-68
2024/01/18 14:00:33;;;;;;;21.65;8.80;;;;;;;;;;5072790;28;20103;-66
2024/01/18 14:02:58;;;;;;;17.70;7.60;;;;;;;;;;5055352;28;20127;-66
2024/01/18 14:05:27;;;;;;;17.08;7.93;;;;;;;;;;5073514;28;20372;-67
2024/01/18 14:07:52;;;;;;;17.55;7.32;;;;;;;;;;5073337;28;20023;-66
2024/01/18 14:10:18;;;;;;;18.80;8.77;;;;;;;;;;5073232;28;20037;-68
2024/01/18 14:12:43;;;;;;;16.38;7.78;;;;;;;;;;5073291;28;20078;-68
2024/01/18 14:15:09;;;;;;;21.23;8.68;;;;;;;;;;5073205;28;20020;-67
2024/01/18 14:17:34;;;;;;;18.20;8.82;;;;;;;;;;5055177;28;20494;-66
2024/01/18 14:20:00;;;;;;;15.52;6.40;;;;;;;;;;5073096;28;20020;-66